sensor_id;sensor_type;location;lat;lon;timestamp;P1;durP1;ratioP1;P2;durP2;ratioP2
28844;SDS011;15976;47.938;7.758;2023-10-09T00:02:08;27.05;;;5.38;;
28844;SDS011;15976;47.938;7.758;2023-10-09T00:04:37;22.27;;;5.43;;
28844;SDS011;15976;47.938;7.758;2023-10-09T00:07:05;27.73;;;5.78;;
28844;SDS011;15976;47.938;7.758;2023-10-09T00:09:35;20.77;;;4.75;;
28844;SDS011;15976;47.938;7.758;2023-10-09T00:12:28;20.20;;;5.20;;
28844;SDS011;15976;47.938;7.758;2023-10-09T00:14:55;26.42;;;5.20;;
28844;SDS011;15976;47.938;7.758;2023-10-09T00:17:26;16.60;;;5.40;;
28844;SDS011;15976;47.938;7.758;2023-10-09T00:19:57;15.30;;;4.90;;
28844;SDS011;15976;47.938;7.758;2023-10-09T00:22:26;23.98;;;5.70;;
28844;SDS011;15976;47.938;7.758;2023-10-09T00:24:57;20.80;;;5.63;;
28844;SDS011;15976;47.938;7.758;2023-10-09T00:27:43;19.27;;;5.65;;
28844;SDS011;15976;47.938;7.758;2023-10-09T00:30:13;20.73;;;5.78;;
28844;SDS011;15976;47.938;7.758;2023-10-09T00:32:56;24.25;;;4.90;;
28844;SDS011;15976;47.938;7.758;2023-10-09T00:35:37;21.40;;;6.13;;
28844;SDS011;15976;47.938;7.758;2023-10-09T00:38:21;19.58;;;5.53;;
28844;SDS011;15976;47.938;7.758;2023-10-09T00:40:48;23.95;;;5.43;;
28844;SDS011;15976;47.938;7.758;2023-10-09T00:43:50;19.23;;;5.32;;
28844;SDS011;15976;47.938;7.758;2023-10-09T00:46:20;22.67;;;5.93;;
28844;SDS011;15976;47.938;7.758;2023-10-09T00:48:58;18.95;;;4.97;;
28844;SDS011;15976;47.938;7.758;2023-10-09T00:51:29;26.77;;;6.05;;
28844;SDS011;15976;47.938;7.758;2023-10-09T00:54:04;19.05;;;5.40;;
28844;SDS011;15976;47.938;7.758;2023-10-09T00:56:41;21.60;;;5.43;;
28844;SDS011;15976;47.938;7.758;2023-10-09T00:59:18;26.55;;;5.45;;
28844;SDS011;15976;47.938;7.758;2023-10-09T01:01:49;18.80;;;5.00;;
28844;SDS011;15976;47.938;7.758;2023-10-09T01:04:30;21.70;;;5.53;;
28844;SDS011;15976;47.938;7.758;2023-10-09T01:07:03;18.70;;;5.43;;
28844;SDS011;15976;47.938;7.758;2023-10-09T01:09:36;23.48;;;5.32;;
28844;SDS011;15976;47.938;7.758;2023-10-09T01:12:05;18.10;;;5.00;;
28844;SDS011;15976;47.938;7.758;2023-10-09T01:14:32;21.70;;;5.97;;
28844;SDS011;15976;47.938;7.758;2023-10-09T01:17:07;17.63;;;5.03;;
28844;SDS011;15976;47.938;7.758;2023-10-09T01:19:35;18.63;;;5.80;;
28844;SDS011;15976;47.938;7.758;2023-10-09T01:22:03;23.02;;;5.45;;
28844;SDS011;15976;47.938;7.758;2023-10-09T01:24:40;18.45;;;4.90;;
28844;SDS011;15976;47.938;7.758;2023-10-09T01:27:07;24.23;;;5.95;;
28844;SDS011;15976;47.938;7.758;2023-10-09T01:29:42;26.13;;;6.00;;
28844;SDS011;15976;47.938;7.758;2023-10-09T01:32:10;19.30;;;6.13;;
28844;SDS011;15976;47.938;7.758;2023-10-09T01:34:43;23.90;;;5.28;;
28844;SDS011;15976;47.938;7.758;2023-10-09T01:37:19;20.15;;;5.35;;
28844;SDS011;15976;47.938;7.758;2023-10-09T01:39:50;21.73;;;5.37;;
28844;SDS011;15976;47.938;7.758;2023-10-09T01:42:46;22.40;;;5.35;;
28844;SDS011;15976;47.938;7.758;2023-10-09T01:45:13;23.35;;;5.70;;
28844;SDS011;15976;47.938;7.758;2023-10-09T01:47:47;24.27;;;5.65;;
28844;SDS011;15976;47.938;7.758;2023-10-09T01:50:25;19.20;;;5.25;;
28844;SDS011;15976;47.938;7.758;2023-10-09T01:52:58;22.50;;;5.75;;
28844;SDS011;15976;47.938;7.758;2023-10-09T01:55:31;29.80;;;6.07;;
28844;SDS011;15976;47.938;7.758;2023-10-09T01:58:06;21.63;;;5.80;;
28844;SDS011;15976;47.938;7.758;2023-10-09T02:00:54;19.92;;;5.72;;
28844;SDS011;15976;47.938;7.758;2023-10-09T02:03:22;22.77;;;5.30;;
28844;SDS011;15976;47.938;7.758;2023-10-09T02:05:51;25.08;;;5.65;;
28844;SDS011;15976;47.938;7.758;2023-10-09T02:08:29;19.98;;;5.25;;
28844;SDS011;15976;47.938;7.758;2023-10-09T02:10:56;28.83;;;6.32;;
28844;SDS011;15976;47.938;7.758;2023-10-09T02:13:23;20.17;;;5.88;;
28844;SDS011;15976;47.938;7.758;2023-10-09T02:15:58;21.40;;;6.38;;
28844;SDS011;15976;47.938;7.758;2023-10-09T02:18:40;22.38;;;6.63;;
28844;SDS011;15976;47.938;7.758;2023-10-09T02:21:19;24.58;;;5.63;;
28844;SDS011;15976;47.938;7.758;2023-10-09T02:24:01;20.13;;;6.13;;
28844;SDS011;15976;47.938;7.758;2023-10-09T02:26:32;18.98;;;5.05;;
28844;SDS011;15976;47.938;7.758;2023-10-09T02:29:05;23.67;;;5.43;;
28844;SDS011;15976;47.938;7.758;2023-10-09T02:31:45;16.85;;;5.70;;
28844;SDS011;15976;47.938;7.758;2023-10-09T02:34:18;21.77;;;5.28;;
28844;SDS011;15976;47.938;7.758;2023-10-09T02:36:48;19.25;;;4.80;;
28844;SDS011;15976;47.938;7.758;2023-10-09T02:39:16;21.23;;;5.22;;
28844;SDS011;15976;47.938;7.758;2023-10-09T02:41:57;18.70;;;5.15;;
28844;SDS011;15976;47.938;7.758;2023-10-09T02:44:47;22.83;;;5.18;;
28844;SDS011;15976;47.938;7.758;2023-10-09T02:47:18;20.10;;;5.28;;
28844;SDS011;15976;47.938;7.758;2023-10-09T02:49:58;21.52;;;5.82;;
28844;SDS011;15976;47.938;7.758;2023-10-09T02:52:33;28.30;;;5.65;;
28844;SDS011;15976;47.938;7.758;2023-10-09T02:55:07;28.33;;;4.88;;
28844;SDS011;15976;47.938;7.758;2023-10-09T02:57:39;17.27;;;4.53;;
28844;SDS011;15976;47.938;7.758;2023-10-09T03:00:08;20.75;;;4.88;;
28844;SDS011;15976;47.938;7.758;2023-10-09T03:02:36;19.88;;;4.90;;
28844;SDS011;15976;47.938;7.758;2023-10-09T03:05:07;16.17;;;5.18;;
28844;SDS011;15976;47.938;7.758;2023-10-09T03:07:38;15.77;;;4.78;;
28844;SDS011;15976;47.938;7.758;2023-10-09T03:10:08;23.50;;;5.60;;
28844;SDS011;15976;47.938;7.758;2023-10-09T03:12:36;19.85;;;4.93;;
28844;SDS011;15976;47.938;7.758;2023-10-09T03:15:06;15.23;;;4.97;;
28844;SDS011;15976;47.938;7.758;2023-10-09T03:17:35;23.38;;;5.50;;
28844;SDS011;15976;47.938;7.758;2023-10-09T03:20:03;18.83;;;5.35;;
28844;SDS011;15976;47.938;7.758;2023-10-09T03:22:38;20.33;;;4.82;;
28844;SDS011;15976;47.938;7.758;2023-10-09T03:25:06;24.20;;;5.75;;
28844;SDS011;15976;47.938;7.758;2023-10-09T03:27:47;19.27;;;5.32;;
28844;SDS011;15976;47.938;7.758;2023-10-09T03:30:15;21.63;;;5.82;;
28844;SDS011;15976;47.938;7.758;2023-10-09T03:32:44;23.08;;;5.65;;
28844;SDS011;15976;47.938;7.758;2023-10-09T03:35:20;16.98;;;4.90;;
28844;SDS011;15976;47.938;7.758;2023-10-09T03:37:53;18.40;;;5.07;;
28844;SDS011;15976;47.938;7.758;2023-10-09T03:40:27;17.60;;;5.18;;
28844;SDS011;15976;47.938;7.758;2023-10-09T03:42:54;18.15;;;5.38;;
28844;SDS011;15976;47.938;7.758;2023-10-09T03:45:21;21.23;;;5.22;;
28844;SDS011;15976;47.938;7.758;2023-10-09T03:47:53;21.33;;;5.18;;
28844;SDS011;15976;47.938;7.758;2023-10-09T03:50:42;16.08;;;5.38;;
28844;SDS011;15976;47.938;7.758;2023-10-09T03:53:10;19.45;;;5.82;;
28844;SDS011;15976;47.938;7.758;2023-10-09T03:55:38;23.05;;;5.90;;
28844;SDS011;15976;47.938;7.758;2023-10-09T03:58:06;20.00;;;5.47;;
28844;SDS011;15976;47.938;7.758;2023-10-09T04:00:33;19.83;;;5.45;;
28844;SDS011;15976;47.938;7.758;2023-10-09T04:03:13;19.25;;;5.95;;
28844;SDS011;15976;47.938;7.758;2023-10-09T04:05:42;15.73;;;6.15;;
28844;SDS011;15976;47.938;7.758;2023-10-09T04:08:10;21.50;;;5.72;;
28844;SDS011;15976;47.938;7.758;2023-10-09T04:10:46;19.27;;;5.30;;
28844;SDS011;15976;47.938;7.758;2023-10-09T04:13:24;18.35;;;6.10;;
28844;SDS011;15976;47.938;7.758;2023-10-09T04:16:02;18.67;;;5.70;;
28844;SDS011;15976;47.938;7.758;2023-10-09T04:21:23;28.15;;;6.63;;
28844;SDS011;15976;47.938;7.758;2023-10-09T04:23:56;22.13;;;6.18;;
28844;SDS011;15976;47.938;7.758;2023-10-09T04:26:55;17.35;;;5.47;;
28844;SDS011;15976;47.938;7.758;2023-10-09T04:29:23;25.23;;;6.20;;
28844;SDS011;15976;47.938;7.758;2023-10-09T04:31:54;20.73;;;5.60;;
28844;SDS011;15976;47.938;7.758;2023-10-09T04:34:23;21.00;;;5.97;;
28844;SDS011;15976;47.938;7.758;2023-10-09T04:37:04;21.88;;;5.68;;
28844;SDS011;15976;47.938;7.758;2023-10-09T04:39:40;18.35;;;5.15;;
28844;SDS011;15976;47.938;7.758;2023-10-09T04:42:15;17.70;;;5.22;;
28844;SDS011;15976;47.938;7.758;2023-10-09T04:44:51;17.48;;;5.03;;
28844;SDS011;15976;47.938;7.758;2023-10-09T04:47:32;15.43;;;5.05;;
28844;SDS011;15976;47.938;7.758;2023-10-09T04:52:35;23.83;;;5.38;;
28844;SDS011;15976;47.938;7.758;2023-10-09T04:55:03;24.05;;;5.75;;
28844;SDS011;15976;47.938;7.758;2023-10-09T04:57:36;20.63;;;5.20;;
28844;SDS011;15976;47.938;7.758;2023-10-09T05:00:13;21.27;;;5.88;;
28844;SDS011;15976;47.938;7.758;2023-10-09T05:05:24;23.70;;;5.53;;
28844;SDS011;15976;47.938;7.758;2023-10-09T05:08:15;31.33;;;6.35;;
28844;SDS011;15976;47.938;7.758;2023-10-09T05:10:49;19.02;;;6.20;;
28844;SDS011;15976;47.938;7.758;2023-10-09T05:13:40;32.85;;;7.38;;
28844;SDS011;15976;47.938;7.758;2023-10-09T05:16:16;24.48;;;5.80;;
28844;SDS011;15976;47.938;7.758;2023-10-09T05:18:53;22.27;;;5.32;;
28844;SDS011;15976;47.938;7.758;2023-10-09T05:21:48;19.50;;;5.43;;
28844;SDS011;15976;47.938;7.758;2023-10-09T05:24:15;17.80;;;5.20;;
28844;SDS011;15976;47.938;7.758;2023-10-09T05:26:46;14.20;;;5.53;;
28844;SDS011;15976;47.938;7.758;2023-10-09T05:29:19;21.95;;;6.63;;
28844;SDS011;15976;47.938;7.758;2023-10-09T05:32:05;18.20;;;5.45;;
28844;SDS011;15976;47.938;7.758;2023-10-09T05:34:39;20.95;;;6.07;;
28844;SDS011;15976;47.938;7.758;2023-10-09T05:37:26;23.17;;;5.70;;
28844;SDS011;15976;47.938;7.758;2023-10-09T05:40:05;17.48;;;5.35;;
28844;SDS011;15976;47.938;7.758;2023-10-09T05:42:45;21.73;;;5.82;;
28844;SDS011;15976;47.938;7.758;2023-10-09T05:45:24;17.05;;;5.22;;
28844;SDS011;15976;47.938;7.758;2023-10-09T05:48:11;19.20;;;5.25;;
28844;SDS011;15976;47.938;7.758;2023-10-09T05:50:44;22.20;;;6.35;;
28844;SDS011;15976;47.938;7.758;2023-10-09T05:53:46;23.90;;;7.47;;
28844;SDS011;15976;47.938;7.758;2023-10-09T05:56:13;30.85;;;10.00;;
28844;SDS011;15976;47.938;7.758;2023-10-09T05:59:03;34.88;;;7.85;;
28844;SDS011;15976;47.938;7.758;2023-10-09T06:01:33;29.38;;;8.05;;
28844;SDS011;15976;47.938;7.758;2023-10-09T06:04:18;27.80;;;7.55;;
28844;SDS011;15976;47.938;7.758;2023-10-09T06:06:46;23.55;;;7.13;;
28844;SDS011;15976;47.938;7.758;2023-10-09T06:09:23;23.58;;;6.53;;
28844;SDS011;15976;47.938;7.758;2023-10-09T06:12:10;27.00;;;7.43;;
28844;SDS011;15976;47.938;7.758;2023-10-09T06:17:51;27.90;;;7.07;;
28844;SDS011;15976;47.938;7.758;2023-10-09T06:20:18;23.13;;;7.53;;
28844;SDS011;15976;47.938;7.758;2023-10-09T06:23:03;23.98;;;7.30;;
28844;SDS011;15976;47.938;7.758;2023-10-09T06:25:45;23.83;;;9.60;;
28844;SDS011;15976;47.938;7.758;2023-10-09T06:28:18;39.83;;;16.10;;
28844;SDS011;15976;47.938;7.758;2023-10-09T06:30:59;37.35;;;16.35;;
28844;SDS011;15976;47.938;7.758;2023-10-09T06:33:46;38.00;;;14.60;;
28844;SDS011;15976;47.938;7.758;2023-10-09T06:36:42;46.72;;;21.58;;
28844;SDS011;15976;47.938;7.758;2023-10-09T06:39:19;60.53;;;25.85;;
28844;SDS011;15976;47.938;7.758;2023-10-09T06:42:15;45.05;;;20.83;;
28844;SDS011;15976;47.938;7.758;2023-10-09T06:45:01;65.40;;;31.33;;
28844;SDS011;15976;47.938;7.758;2023-10-09T06:47:41;72.45;;;32.63;;
28844;SDS011;15976;47.938;7.758;2023-10-09T06:50:36;86.30;;;37.30;;
28844;SDS011;15976;47.938;7.758;2023-10-09T06:53:22;64.97;;;28.33;;
28844;SDS011;15976;47.938;7.758;2023-10-09T06:58:32;63.75;;;28.70;;
28844;SDS011;15976;47.938;7.758;2023-10-09T07:01:09;52.25;;;19.35;;
28844;SDS011;15976;47.938;7.758;2023-10-09T07:04:08;48.88;;;20.38;;
28844;SDS011;15976;47.938;7.758;2023-10-09T07:06:46;39.47;;;18.70;;
28844;SDS011;15976;47.938;7.758;2023-10-09T07:09:18;37.85;;;15.35;;
28844;SDS011;15976;47.938;7.758;2023-10-09T07:11:47;32.80;;;11.57;;
28844;SDS011;15976;47.938;7.758;2023-10-09T07:19:27;38.92;;;14.25;;
28844;SDS011;15976;47.938;7.758;2023-10-09T07:22:01;42.88;;;14.02;;
28844;SDS011;15976;47.938;7.758;2023-10-09T07:24:42;38.58;;;13.43;;
28844;SDS011;15976;47.938;7.758;2023-10-09T07:27:10;38.50;;;12.77;;
28844;SDS011;15976;47.938;7.758;2023-10-09T07:29:40;32.10;;;11.05;;
28844;SDS011;15976;47.938;7.758;2023-10-09T07:32:17;32.42;;;11.15;;
28844;SDS011;15976;47.938;7.758;2023-10-09T07:34:48;35.83;;;11.90;;
28844;SDS011;15976;47.938;7.758;2023-10-09T07:37:28;33.90;;;11.55;;
28844;SDS011;15976;47.938;7.758;2023-10-09T07:40:04;30.42;;;9.73;;
28844;SDS011;15976;47.938;7.758;2023-10-09T07:42:34;30.80;;;9.02;;
28844;SDS011;15976;47.938;7.758;2023-10-09T07:45:08;16.30;;;6.80;;
28844;SDS011;15976;47.938;7.758;2023-10-09T07:47:47;31.33;;;8.55;;
28844;SDS011;15976;47.938;7.758;2023-10-09T07:50:34;23.63;;;8.05;;
28844;SDS011;15976;47.938;7.758;2023-10-09T07:53:15;17.33;;;5.63;;
28844;SDS011;15976;47.938;7.758;2023-10-09T07:55:52;23.95;;;4.97;;
28844;SDS011;15976;47.938;7.758;2023-10-09T07:58:32;20.50;;;5.28;;
28844;SDS011;15976;47.938;7.758;2023-10-09T08:01:12;18.65;;;5.00;;
28844;SDS011;15976;47.938;7.758;2023-10-09T08:04:04;24.08;;;5.45;;
28844;SDS011;15976;47.938;7.758;2023-10-09T08:06:38;20.38;;;4.45;;
28844;SDS011;15976;47.938;7.758;2023-10-09T08:09:05;19.92;;;4.53;;
28844;SDS011;15976;47.938;7.758;2023-10-09T08:14:34;20.35;;;4.70;;
28844;SDS011;15976;47.938;7.758;2023-10-09T08:17:01;19.23;;;4.90;;
28844;SDS011;15976;47.938;7.758;2023-10-09T08:19:48;23.48;;;4.93;;
28844;SDS011;15976;47.938;7.758;2023-10-09T08:22:29;20.88;;;5.13;;
28844;SDS011;15976;47.938;7.758;2023-10-09T08:24:57;22.02;;;4.55;;
28844;SDS011;15976;47.938;7.758;2023-10-09T08:27:28;21.60;;;4.63;;
28844;SDS011;15976;47.938;7.758;2023-10-09T08:30:00;20.92;;;4.68;;
28844;SDS011;15976;47.938;7.758;2023-10-09T08:32:50;19.00;;;4.68;;
28844;SDS011;15976;47.938;7.758;2023-10-09T08:35:34;19.80;;;4.60;;
28844;SDS011;15976;47.938;7.758;2023-10-09T08:38:17;19.02;;;4.65;;
28844;SDS011;15976;47.938;7.758;2023-10-09T08:40:51;19.27;;;4.10;;
28844;SDS011;15976;47.938;7.758;2023-10-09T08:43:24;20.48;;;4.32;;
28844;SDS011;15976;47.938;7.758;2023-10-09T08:45:55;17.77;;;4.68;;
28844;SDS011;15976;47.938;7.758;2023-10-09T08:48:29;24.35;;;4.93;;
28844;SDS011;15976;47.938;7.758;2023-10-09T08:50:57;23.50;;;5.00;;
28844;SDS011;15976;47.938;7.758;2023-10-09T08:53:24;26.38;;;5.05;;
28844;SDS011;15976;47.938;7.758;2023-10-09T08:55:54;17.70;;;4.45;;
28844;SDS011;15976;47.938;7.758;2023-10-09T08:58:23;15.95;;;4.95;;
28844;SDS011;15976;47.938;7.758;2023-10-09T09:01:03;19.73;;;4.60;;
28844;SDS011;15976;47.938;7.758;2023-10-09T09:03:41;23.10;;;5.20;;
28844;SDS011;15976;47.938;7.758;2023-10-09T09:06:11;21.08;;;4.75;;
28844;SDS011;15976;47.938;7.758;2023-10-09T09:08:42;20.42;;;4.85;;
28844;SDS011;15976;47.938;7.758;2023-10-09T09:11:17;18.42;;;4.65;;
28844;SDS011;15976;47.938;7.758;2023-10-09T09:16:45;19.88;;;5.22;;
28844;SDS011;15976;47.938;7.758;2023-10-09T09:19:15;18.75;;;4.68;;
28844;SDS011;15976;47.938;7.758;2023-10-09T09:21:49;22.52;;;4.93;;
28844;SDS011;15976;47.938;7.758;2023-10-09T09:24:22;21.92;;;5.82;;
28844;SDS011;15976;47.938;7.758;2023-10-09T09:26:49;21.92;;;5.05;;
28844;SDS011;15976;47.938;7.758;2023-10-09T09:37:20;23.80;;;5.20;;
28844;SDS011;15976;47.938;7.758;2023-10-09T09:39:58;19.17;;;4.32;;
28844;SDS011;15976;47.938;7.758;2023-10-09T09:42:45;20.95;;;4.65;;
28844;SDS011;15976;47.938;7.758;2023-10-09T09:45:14;24.52;;;4.72;;
28844;SDS011;15976;47.938;7.758;2023-10-09T09:47:43;17.50;;;4.90;;
28844;SDS011;15976;47.938;7.758;2023-10-09T09:50:18;18.27;;;4.63;;
28844;SDS011;15976;47.938;7.758;2023-10-09T09:52:53;22.92;;;4.47;;
28844;SDS011;15976;47.938;7.758;2023-10-09T09:55:21;23.83;;;4.45;;
28844;SDS011;15976;47.938;7.758;2023-10-09T09:57:57;20.70;;;4.30;;
28844;SDS011;15976;47.938;7.758;2023-10-09T10:00:27;20.58;;;4.55;;
28844;SDS011;15976;47.938;7.758;2023-10-09T10:02:59;19.40;;;4.40;;
28844;SDS011;15976;47.938;7.758;2023-10-09T10:05:32;21.88;;;4.80;;
28844;SDS011;15976;47.938;7.758;2023-10-09T10:08:01;16.23;;;4.82;;
28844;SDS011;15976;47.938;7.758;2023-10-09T10:13:04;20.58;;;4.68;;
28844;SDS011;15976;47.938;7.758;2023-10-09T10:18:53;21.90;;;4.97;;
28844;SDS011;15976;47.938;7.758;2023-10-09T10:21:34;19.98;;;4.20;;
28844;SDS011;15976;47.938;7.758;2023-10-09T10:29:38;17.30;;;4.57;;
28844;SDS011;15976;47.938;7.758;2023-10-09T10:32:07;27.10;;;5.18;;
28844;SDS011;15976;47.938;7.758;2023-10-09T10:40:10;19.38;;;4.25;;
28844;SDS011;15976;47.938;7.758;2023-10-09T10:42:56;21.15;;;5.00;;
28844;SDS011;15976;47.938;7.758;2023-10-09T10:45:43;27.00;;;4.80;;
28844;SDS011;15976;47.938;7.758;2023-10-09T10:48:11;22.25;;;4.65;;
28844;SDS011;15976;47.938;7.758;2023-10-09T10:51:04;21.20;;;4.95;;
28844;SDS011;15976;47.938;7.758;2023-10-09T10:53:31;22.73;;;5.20;;
28844;SDS011;15976;47.938;7.758;2023-10-09T10:56:14;19.70;;;4.55;;
28844;SDS011;15976;47.938;7.758;2023-10-09T10:58:42;22.48;;;5.00;;
28844;SDS011;15976;47.938;7.758;2023-10-09T11:01:32;26.67;;;5.03;;
28844;SDS011;15976;47.938;7.758;2023-10-09T11:04:19;20.75;;;4.72;;
28844;SDS011;15976;47.938;7.758;2023-10-09T11:07:00;19.30;;;4.80;;
28844;SDS011;15976;47.938;7.758;2023-10-09T11:12:45;21.10;;;4.72;;
28844;SDS011;15976;47.938;7.758;2023-10-09T11:15:31;23.10;;;5.07;;
28844;SDS011;15976;47.938;7.758;2023-10-09T11:18:14;29.88;;;5.50;;
28844;SDS011;15976;47.938;7.758;2023-10-09T11:20:55;23.98;;;4.63;;
28844;SDS011;15976;47.938;7.758;2023-10-09T11:23:30;20.20;;;4.93;;
28844;SDS011;15976;47.938;7.758;2023-10-09T11:26:02;24.75;;;5.05;;
28844;SDS011;15976;47.938;7.758;2023-10-09T11:32:05;17.38;;;5.03;;
28844;SDS011;15976;47.938;7.758;2023-10-09T11:34:33;20.58;;;5.05;;
28844;SDS011;15976;47.938;7.758;2023-10-09T11:39:38;21.00;;;4.47;;
28844;SDS011;15976;47.938;7.758;2023-10-09T11:42:25;18.20;;;4.35;;
28844;SDS011;15976;47.938;7.758;2023-10-09T11:45:05;18.38;;;5.18;;
28844;SDS011;15976;47.938;7.758;2023-10-09T11:50:40;18.65;;;4.47;;
28844;SDS011;15976;47.938;7.758;2023-10-09T11:53:10;26.38;;;4.57;;
28844;SDS011;15976;47.938;7.758;2023-10-09T11:55:50;13.15;;;4.30;;
28844;SDS011;15976;47.938;7.758;2023-10-09T11:58:20;17.85;;;4.30;;
28844;SDS011;15976;47.938;7.758;2023-10-09T12:00:52;22.90;;;4.60;;
28844;SDS011;15976;47.938;7.758;2023-10-09T12:03:32;15.82;;;5.13;;
28844;SDS011;15976;47.938;7.758;2023-10-09T12:06:01;15.88;;;4.55;;
28844;SDS011;15976;47.938;7.758;2023-10-09T12:08:32;18.88;;;4.95;;
28844;SDS011;15976;47.938;7.758;2023-10-09T12:11:01;19.10;;;4.80;;
28844;SDS011;15976;47.938;7.758;2023-10-09T12:13:35;17.45;;;4.93;;
28844;SDS011;15976;47.938;7.758;2023-10-09T12:16:05;17.23;;;4.70;;
28844;SDS011;15976;47.938;7.758;2023-10-09T12:18:37;17.87;;;4.63;;
28844;SDS011;15976;47.938;7.758;2023-10-09T12:21:06;23.30;;;4.30;;
28844;SDS011;15976;47.938;7.758;2023-10-09T12:23:34;16.13;;;4.63;;
28844;SDS011;15976;47.938;7.758;2023-10-09T12:26:04;19.90;;;4.72;;
28844;SDS011;15976;47.938;7.758;2023-10-09T12:28:31;19.42;;;4.80;;
28844;SDS011;15976;47.938;7.758;2023-10-09T12:31:01;24.63;;;5.10;;
28844;SDS011;15976;47.938;7.758;2023-10-09T12:33:28;15.35;;;4.93;;
28844;SDS011;15976;47.938;7.758;2023-10-09T12:35:56;24.17;;;4.97;;
28844;SDS011;15976;47.938;7.758;2023-10-09T12:38:28;13.93;;;4.93;;
28844;SDS011;15976;47.938;7.758;2023-10-09T12:41:02;19.25;;;4.70;;
28844;SDS011;15976;47.938;7.758;2023-10-09T12:43:35;18.15;;;4.65;;
28844;SDS011;15976;47.938;7.758;2023-10-09T12:46:05;16.23;;;5.03;;
28844;SDS011;15976;47.938;7.758;2023-10-09T12:48:34;20.50;;;5.32;;
28844;SDS011;15976;47.938;7.758;2023-10-09T12:51:02;22.40;;;4.72;;
28844;SDS011;15976;47.938;7.758;2023-10-09T12:53:33;21.17;;;4.15;;
28844;SDS011;15976;47.938;7.758;2023-10-09T12:56:00;20.35;;;4.80;;
28844;SDS011;15976;47.938;7.758;2023-10-09T12:58:27;16.27;;;4.65;;
28844;SDS011;15976;47.938;7.758;2023-10-09T13:00:54;20.27;;;4.90;;
28844;SDS011;15976;47.938;7.758;2023-10-09T13:03:21;22.25;;;4.75;;
28844;SDS011;15976;47.938;7.758;2023-10-09T13:05:55;18.73;;;5.38;;
28844;SDS011;15976;47.938;7.758;2023-10-09T13:08:22;23.33;;;5.25;;
28844;SDS011;15976;47.938;7.758;2023-10-09T13:10:50;23.35;;;5.03;;
28844;SDS011;15976;47.938;7.758;2023-10-09T13:13:28;22.63;;;4.90;;
28844;SDS011;15976;47.938;7.758;2023-10-09T13:16:13;22.77;;;4.82;;
28844;SDS011;15976;47.938;7.758;2023-10-09T13:18:52;17.45;;;4.68;;
28844;SDS011;15976;47.938;7.758;2023-10-09T13:21:21;19.58;;;4.85;;
28844;SDS011;15976;47.938;7.758;2023-10-09T13:26:24;14.55;;;4.57;;
28844;SDS011;15976;47.938;7.758;2023-10-09T13:29:01;25.20;;;4.57;;
28844;SDS011;15976;47.938;7.758;2023-10-09T13:31:30;20.20;;;4.38;;
28844;SDS011;15976;47.938;7.758;2023-10-09T13:34:02;20.23;;;4.53;;
28844;SDS011;15976;47.938;7.758;2023-10-09T13:36:30;22.85;;;4.63;;
28844;SDS011;15976;47.938;7.758;2023-10-09T13:39:01;16.33;;;4.50;;
28844;SDS011;15976;47.938;7.758;2023-10-09T13:44:29;20.67;;;4.90;;
28844;SDS011;15976;47.938;7.758;2023-10-09T13:47:01;15.10;;;3.85;;
28844;SDS011;15976;47.938;7.758;2023-10-09T13:49:46;25.83;;;4.50;;
28844;SDS011;15976;47.938;7.758;2023-10-09T13:52:17;34.15;;;4.70;;
28844;SDS011;15976;47.938;7.758;2023-10-09T13:54:45;19.65;;;4.88;;
28844;SDS011;15976;47.938;7.758;2023-10-09T13:57:16;24.30;;;5.03;;
28844;SDS011;15976;47.938;7.758;2023-10-09T13:59:43;18.58;;;4.03;;
28844;SDS011;15976;47.938;7.758;2023-10-09T14:02:15;19.98;;;4.22;;
28844;SDS011;15976;47.938;7.758;2023-10-09T14:04:45;23.55;;;5.22;;
28844;SDS011;15976;47.938;7.758;2023-10-09T14:07:13;30.33;;;5.30;;
28844;SDS011;15976;47.938;7.758;2023-10-09T14:09:44;28.77;;;5.20;;
28844;SDS011;15976;47.938;7.758;2023-10-09T14:12:22;15.27;;;4.22;;
28844;SDS011;15976;47.938;7.758;2023-10-09T14:14:51;17.45;;;4.80;;
28844;SDS011;15976;47.938;7.758;2023-10-09T14:17:21;19.48;;;4.75;;
28844;SDS011;15976;47.938;7.758;2023-10-09T14:19:55;22.00;;;5.03;;
28844;SDS011;15976;47.938;7.758;2023-10-09T14:22:33;24.48;;;4.72;;
28844;SDS011;15976;47.938;7.758;2023-10-09T14:25:04;21.77;;;4.88;;
28844;SDS011;15976;47.938;7.758;2023-10-09T14:27:39;20.60;;;4.50;;
28844;SDS011;15976;47.938;7.758;2023-10-09T14:30:07;18.98;;;4.97;;
28844;SDS011;15976;47.938;7.758;2023-10-09T14:32:45;22.67;;;4.45;;
28844;SDS011;15976;47.938;7.758;2023-10-09T14:35:18;19.10;;;5.07;;
28844;SDS011;15976;47.938;7.758;2023-10-09T14:37:48;21.98;;;4.82;;
28844;SDS011;15976;47.938;7.758;2023-10-09T14:40:15;17.42;;;4.63;;
28844;SDS011;15976;47.938;7.758;2023-10-09T14:42:48;21.98;;;4.50;;
28844;SDS011;15976;47.938;7.758;2023-10-09T14:45:23;20.20;;;5.07;;
28844;SDS011;15976;47.938;7.758;2023-10-09T14:47:54;21.90;;;5.38;;
28844;SDS011;15976;47.938;7.758;2023-10-09T14:50:21;21.40;;;4.70;;
28844;SDS011;15976;47.938;7.758;2023-10-09T14:52:49;23.08;;;6.07;;
28844;SDS011;15976;47.938;7.758;2023-10-09T14:55:17;25.30;;;4.80;;
28844;SDS011;15976;47.938;7.758;2023-10-09T14:57:48;22.10;;;5.20;;
28844;SDS011;15976;47.938;7.758;2023-10-09T15:00:18;16.58;;;4.85;;
28844;SDS011;15976;47.938;7.758;2023-10-09T15:02:50;22.27;;;5.47;;
28844;SDS011;15976;47.938;7.758;2023-10-09T15:05:19;22.73;;;4.10;;
28844;SDS011;15976;47.938;7.758;2023-10-09T15:07:49;31.42;;;5.32;;
28844;SDS011;15976;47.938;7.758;2023-10-09T15:10:18;33.00;;;5.25;;
28844;SDS011;15976;47.938;7.758;2023-10-09T15:12:45;23.30;;;5.10;;
28844;SDS011;15976;47.938;7.758;2023-10-09T15:15:16;21.77;;;5.20;;
28844;SDS011;15976;47.938;7.758;2023-10-09T15:17:44;19.67;;;4.82;;
28844;SDS011;15976;47.938;7.758;2023-10-09T15:20:15;22.65;;;4.68;;
28844;SDS011;15976;47.938;7.758;2023-10-09T15:22:43;25.10;;;5.18;;
28844;SDS011;15976;47.938;7.758;2023-10-09T15:25:11;26.52;;;4.38;;
28844;SDS011;15976;47.938;7.758;2023-10-09T15:27:42;20.48;;;4.65;;
28844;SDS011;15976;47.938;7.758;2023-10-09T15:30:10;23.40;;;5.35;;
28844;SDS011;15976;47.938;7.758;2023-10-09T15:32:41;20.13;;;4.70;;
28844;SDS011;15976;47.938;7.758;2023-10-09T15:35:11;18.58;;;5.38;;
28844;SDS011;15976;47.938;7.758;2023-10-09T15:37:42;22.13;;;5.15;;
28844;SDS011;15976;47.938;7.758;2023-10-09T15:40:09;22.92;;;4.53;;
28844;SDS011;15976;47.938;7.758;2023-10-09T15:42:45;21.98;;;5.40;;
28844;SDS011;15976;47.938;7.758;2023-10-09T15:45:17;25.55;;;4.40;;
28844;SDS011;15976;47.938;7.758;2023-10-09T15:47:49;18.00;;;5.50;;
28844;SDS011;15976;47.938;7.758;2023-10-09T15:50:18;19.27;;;5.95;;
28844;SDS011;15976;47.938;7.758;2023-10-09T15:52:46;25.63;;;6.00;;
28844;SDS011;15976;47.938;7.758;2023-10-09T15:55:16;24.45;;;5.85;;
28844;SDS011;15976;47.938;7.758;2023-10-09T15:57:47;26.60;;;6.28;;
28844;SDS011;15976;47.938;7.758;2023-10-09T16:00:21;25.27;;;5.95;;
28844;SDS011;15976;47.938;7.758;2023-10-09T16:02:55;27.50;;;5.53;;
28844;SDS011;15976;47.938;7.758;2023-10-09T16:05:22;27.20;;;5.85;;
28844;SDS011;15976;47.938;7.758;2023-10-09T16:07:52;23.65;;;5.65;;
28844;SDS011;15976;47.938;7.758;2023-10-09T16:10:21;20.40;;;5.25;;
28844;SDS011;15976;47.938;7.758;2023-10-09T16:12:48;20.98;;;5.07;;
28844;SDS011;15976;47.938;7.758;2023-10-09T16:15:17;20.95;;;5.35;;
28844;SDS011;15976;47.938;7.758;2023-10-09T16:17:46;25.45;;;5.43;;
28844;SDS011;15976;47.938;7.758;2023-10-09T16:20:25;24.05;;;4.97;;
28844;SDS011;15976;47.938;7.758;2023-10-09T16:22:52;20.90;;;5.45;;